Union Manta — ORKJ — position and weather

sailwx.info

Track history (hours):
 
Tides and Currents Weather Stations Pressure Air Temp Water Temp Dewpoint Dewpoint Depression Visibility Wind Speed Wind Dir Waves Ship Positions

Union Manta

Last reported at 2017-Feb-17 21:13 UTC. Time now 2017-Feb-20 15:24 UTC.
Position N 32°39' W 013°37'.

Length 75 m; draft 6 m.

Type: Tug. MMSI: 205340000.

Date/timePositionNaut miles runAvg speedWind from/ knotsBaromVisibWave heightAir tempDewpointWater temp
2017-Feb-17 21:13N 32°39' W 013°37'1014.3
2017-Feb-17 20:33N 32°30' W 013°41'2814.1
2017-Feb-17 18:33N 32°04' W 013°52'1514.0
2017-Feb-17 17:30N 31°50' W 013°58'11214.1
2017-Feb-17 09:33N 30°04' W 014°41'1614.4
2017-Feb-17 08:29N 29°49' W 014°46'1614.4
2017-Feb-17 07:23N 29°34' W 014°50'2614.3
2017-Feb-17 05:33N 29°10' W 015°02'1414.2
2017-Feb-17 04:33N 28°56' W 015°07'1414.4
2017-Feb-17 03:33N 28°42' W 015°12'1414.2
2017-Feb-17 02:33N 28°29' W 015°17'1414.3
2017-Feb-17 01:34N 28°15' W 015°21'6 6.3
2017-Feb-17 00:33N 28°09' W 015°24'0 0.0
2017-Feb-16 23:32N 28°09' W 015°24'0 0.0
2017-Feb-16 22:32N 28°09' W 015°24'0 0.0
2017-Feb-16 21:32N 28°09' W 015°24'0 0.0
2017-Feb-16 20:32N 28°09' W 015°24'0 0.0
2017-Feb-16 19:23N 28°09' W 015°24'4 5.1
2017-Feb-16 18:33N 28°06' W 015°22'1414.3
2017-Feb-16 17:33N 27°52' W 015°16'  
2017-Feb-07 23:21S 05°30' E 010°56'1314.2
2017-Feb-07 22:28S 05°35' E 011°07'1314.5
2017-Feb-07 21:33S 05°41' E 011°19'  
Track history (hours):
 
Tides and Currents Weather Stations Pressure Air Temp Water Temp Dewpoint Dewpoint Depression Visibility Wind Speed Wind Dir Waves Ship Positions

Union Manta

Last reported at 2017-Feb-17 21:13 UTC. Time now 2017-Feb-20 15:24 UTC.
Position N 32°39' W 013°37'.

Length 75 m; draft 6 m.

Type: Tug. MMSI: 205340000.

Date/timePositionNaut miles runAvg speedWind from/ knotsBaromVisibWave heightAir tempDewpointWater temp
2017-Feb-17 21:13N 32°39' W 013°37'1014.3
2017-Feb-17 20:33N 32°30' W 013°41'2814.1
2017-Feb-17 18:33N 32°04' W 013°52'1514.0
2017-Feb-17 17:30N 31°50' W 013°58'11214.1
2017-Feb-17 09:33N 30°04' W 014°41'1614.4
2017-Feb-17 08:29N 29°49' W 014°46'1614.4
2017-Feb-17 07:23N 29°34' W 014°50'2614.3
2017-Feb-17 05:33N 29°10' W 015°02'1414.2
2017-Feb-17 04:33N 28°56' W 015°07'1414.4
2017-Feb-17 03:33N 28°42' W 015°12'1414.2
2017-Feb-17 02:33N 28°29' W 015°17'1414.3
2017-Feb-17 01:34N 28°15' W 015°21'6 6.3
2017-Feb-17 00:33N 28°09' W 015°24'0 0.0
2017-Feb-16 23:32N 28°09' W 015°24'0 0.0
2017-Feb-16 22:32N 28°09' W 015°24'0 0.0
2017-Feb-16 21:32N 28°09' W 015°24'0 0.0
2017-Feb-16 20:32N 28°09' W 015°24'0 0.0
2017-Feb-16 19:23N 28°09' W 015°24'4 5.1
2017-Feb-16 18:33N 28°06' W 015°22'1414.3
2017-Feb-16 17:33N 27°52' W 015°16'  
2017-Feb-07 23:21S 05°30' E 010°56'1314.2
2017-Feb-07 22:28S 05°35' E 011°07'1314.5
2017-Feb-07 21:33S 05°41' E 011°19'  

Dump ship's entire track history